<?xml version="1.0" encoding="UTF-8" standalone="no" ?>
<gpx xmlns="http://www.topografix.com/GPX/1/1" xmlns:xsi="http://www.w3.org/2001/XMLSchema-instance" xsi:schemaLocation="http://www.topografix.com/GPX/1/1 http://www.topografix.com/GPX/1/1/gpx.xsd" version="1.1" creator="VisuGPX - https://www.visugpx.com">
  <metadata>
    <name>12530047-Félines (Ardèche) G2</name>
  </metadata>
  <trk>
    <name><![CDATA[12530047-Félines (Ardèche) G2]]></name>
    <trkseg>
      <trkpt lat="45.31759" lon="4.7282">
        <ele>406</ele>
        <time>2021-02-26T05:00:49Z</time>
      </trkpt>
      <trkpt lat="45.31757" lon="4.72802">
        <ele>406</ele>
        <time>2021-02-26T05:01:06Z</time>
      </trkpt>
      <trkpt lat="45.31766" lon="4.72798">
        <ele>406</ele>
        <time>2021-02-26T05:01:19Z</time>
      </trkpt>
      <trkpt lat="45.31773" lon="4.7279">
        <ele>406</ele>
        <time>2021-02-26T05:01:31Z</time>
      </trkpt>
      <trkpt lat="45.31785" lon="4.72766">
        <ele>406</ele>
        <time>2021-02-26T05:01:58Z</time>
      </trkpt>
      <trkpt lat="45.31805" lon="4.72737">
        <ele>406</ele>
        <time>2021-02-26T05:02:36Z</time>
      </trkpt>
      <trkpt lat="45.31835" lon="4.72686">
        <ele>405</ele>
        <time>2021-02-26T05:03:39Z</time>
      </trkpt>
      <trkpt lat="45.31835" lon="4.72669">
        <ele>405</ele>
        <time>2021-02-26T05:03:55Z</time>
      </trkpt>
      <trkpt lat="45.31841" lon="4.72669">
        <ele>405</ele>
        <time>2021-02-26T05:04:03Z</time>
      </trkpt>
      <trkpt lat="45.31854" lon="4.72658">
        <ele>405</ele>
        <time>2021-02-26T05:04:23Z</time>
      </trkpt>
      <trkpt lat="45.31866" lon="4.72645">
        <ele>405</ele>
        <time>2021-02-26T05:04:43Z</time>
      </trkpt>
      <trkpt lat="45.31887" lon="4.72613">
        <ele>405</ele>
        <time>2021-02-26T05:05:24Z</time>
      </trkpt>
      <trkpt lat="45.31935" lon="4.72577">
        <ele>408</ele>
        <time>2021-02-26T05:06:37Z</time>
      </trkpt>
      <trkpt lat="45.32029" lon="4.72521">
        <ele>415</ele>
        <time>2021-02-26T05:08:53Z</time>
      </trkpt>
      <trkpt lat="45.32062" lon="4.72494">
        <ele>417</ele>
        <time>2021-02-26T05:09:43Z</time>
      </trkpt>
      <trkpt lat="45.32107" lon="4.72451">
        <ele>418</ele>
        <time>2021-02-26T05:10:56Z</time>
      </trkpt>
      <trkpt lat="45.3222" lon="4.72327">
        <ele>403</ele>
        <time>2021-02-26T05:14:06Z</time>
      </trkpt>
      <trkpt lat="45.32285" lon="4.72249">
        <ele>393</ele>
        <time>2021-02-26T05:16:00Z</time>
      </trkpt>
      <trkpt lat="45.32328" lon="4.722">
        <ele>388</ele>
        <time>2021-02-26T05:17:13Z</time>
      </trkpt>
      <trkpt lat="45.3237" lon="4.72172">
        <ele>382</ele>
        <time>2021-02-26T05:18:15Z</time>
      </trkpt>
      <trkpt lat="45.32374" lon="4.72146">
        <ele>381</ele>
        <time>2021-02-26T05:18:40Z</time>
      </trkpt>
      <trkpt lat="45.32381" lon="4.72134">
        <ele>379</ele>
        <time>2021-02-26T05:18:55Z</time>
      </trkpt>
      <trkpt lat="45.32408" lon="4.72103">
        <ele>376</ele>
        <time>2021-02-26T05:19:41Z</time>
      </trkpt>
      <trkpt lat="45.32441" lon="4.72056">
        <ele>373</ele>
        <time>2021-02-26T05:20:43Z</time>
      </trkpt>
      <trkpt lat="45.32451" lon="4.72052">
        <ele>373</ele>
        <time>2021-02-26T05:20:57Z</time>
      </trkpt>
      <trkpt lat="45.3247" lon="4.72052">
        <ele>371</ele>
        <time>2021-02-26T05:21:23Z</time>
      </trkpt>
      <trkpt lat="45.32484" lon="4.72044">
        <ele>370</ele>
        <time>2021-02-26T05:21:43Z</time>
      </trkpt>
      <trkpt lat="45.32515" lon="4.72">
        <ele>371</ele>
        <time>2021-02-26T05:22:41Z</time>
      </trkpt>
      <trkpt lat="45.32534" lon="4.71977">
        <ele>372</ele>
        <time>2021-02-26T05:23:14Z</time>
      </trkpt>
      <trkpt lat="45.32582" lon="4.71938">
        <ele>374</ele>
        <time>2021-02-26T05:24:28Z</time>
      </trkpt>
      <trkpt lat="45.32611" lon="4.71898">
        <ele>375</ele>
        <time>2021-02-26T05:25:22Z</time>
      </trkpt>
      <trkpt lat="45.32649" lon="4.71854">
        <ele>376</ele>
        <time>2021-02-26T05:26:27Z</time>
      </trkpt>
      <trkpt lat="45.3273" lon="4.71776">
        <ele>381</ele>
        <time>2021-02-26T05:28:38Z</time>
      </trkpt>
      <trkpt lat="45.32849" lon="4.71621">
        <ele>380</ele>
        <time>2021-02-26T05:32:13Z</time>
      </trkpt>
      <trkpt lat="45.32868" lon="4.71553">
        <ele>376</ele>
        <time>2021-02-26T05:33:22Z</time>
      </trkpt>
      <trkpt lat="45.32875" lon="4.71548">
        <ele>375</ele>
        <time>2021-02-26T05:33:32Z</time>
      </trkpt>
      <trkpt lat="45.32906" lon="4.71572">
        <ele>374</ele>
        <time>2021-02-26T05:34:20Z</time>
      </trkpt>
      <trkpt lat="45.32907" lon="4.71565">
        <ele>373</ele>
        <time>2021-02-26T05:34:26Z</time>
      </trkpt>
      <trkpt lat="45.32928" lon="4.71492">
        <ele>373</ele>
        <time>2021-02-26T05:35:40Z</time>
      </trkpt>
      <trkpt lat="45.32939" lon="4.71476">
        <ele>375</ele>
        <time>2021-02-26T05:36:01Z</time>
      </trkpt>
      <trkpt lat="45.32973" lon="4.71443">
        <ele>378</ele>
        <time>2021-02-26T05:36:56Z</time>
      </trkpt>
      <trkpt lat="45.32987" lon="4.71432">
        <ele>379</ele>
        <time>2021-02-26T05:37:18Z</time>
      </trkpt>
      <trkpt lat="45.33005" lon="4.71422">
        <ele>380</ele>
        <time>2021-02-26T05:37:43Z</time>
      </trkpt>
      <trkpt lat="45.33018" lon="4.7141">
        <ele>380</ele>
        <time>2021-02-26T05:38:04Z</time>
      </trkpt>
      <trkpt lat="45.33027" lon="4.71397">
        <ele>381</ele>
        <time>2021-02-26T05:38:21Z</time>
      </trkpt>
      <trkpt lat="45.33061" lon="4.71371">
        <ele>381</ele>
        <time>2021-02-26T05:39:13Z</time>
      </trkpt>
      <trkpt lat="45.33086" lon="4.71354">
        <ele>382</ele>
        <time>2021-02-26T05:39:50Z</time>
      </trkpt>
      <trkpt lat="45.33155" lon="4.71325">
        <ele>384</ele>
        <time>2021-02-26T05:41:26Z</time>
      </trkpt>
      <trkpt lat="45.33163" lon="4.7132">
        <ele>384</ele>
        <time>2021-02-26T05:41:37Z</time>
      </trkpt>
      <trkpt lat="45.33241" lon="4.71212">
        <ele>388</ele>
        <time>2021-02-26T05:44:03Z</time>
      </trkpt>
      <trkpt lat="45.33226" lon="4.71176">
        <ele>389</ele>
        <time>2021-02-26T05:44:42Z</time>
      </trkpt>
      <trkpt lat="45.33215" lon="4.71137">
        <ele>391</ele>
        <time>2021-02-26T05:45:21Z</time>
      </trkpt>
      <trkpt lat="45.33197" lon="4.71094">
        <ele>392</ele>
        <time>2021-02-26T05:46:08Z</time>
      </trkpt>
      <trkpt lat="45.33176" lon="4.71069">
        <ele>393</ele>
        <time>2021-02-26T05:46:45Z</time>
      </trkpt>
      <trkpt lat="45.33133" lon="4.71045">
        <ele>394</ele>
        <time>2021-02-26T05:47:46Z</time>
      </trkpt>
      <trkpt lat="45.33101" lon="4.71024">
        <ele>396</ele>
        <time>2021-02-26T05:48:33Z</time>
      </trkpt>
      <trkpt lat="45.33066" lon="4.70982">
        <ele>398</ele>
        <time>2021-02-26T05:49:34Z</time>
      </trkpt>
      <trkpt lat="45.33001" lon="4.70925">
        <ele>400</ele>
        <time>2021-02-26T05:51:16Z</time>
      </trkpt>
      <trkpt lat="45.32953" lon="4.70866">
        <ele>405</ele>
        <time>2021-02-26T05:52:41Z</time>
      </trkpt>
      <trkpt lat="45.32896" lon="4.7078">
        <ele>411</ele>
        <time>2021-02-26T05:54:32Z</time>
      </trkpt>
      <trkpt lat="45.32852" lon="4.70747">
        <ele>413</ele>
        <time>2021-02-26T05:55:38Z</time>
      </trkpt>
      <trkpt lat="45.32835" lon="4.70728">
        <ele>414</ele>
        <time>2021-02-26T05:56:07Z</time>
      </trkpt>
      <trkpt lat="45.32826" lon="4.70713">
        <ele>414</ele>
        <time>2021-02-26T05:56:26Z</time>
      </trkpt>
      <trkpt lat="45.32816" lon="4.7069">
        <ele>415</ele>
        <time>2021-02-26T05:56:51Z</time>
      </trkpt>
      <trkpt lat="45.32813" lon="4.70666">
        <ele>416</ele>
        <time>2021-02-26T05:57:14Z</time>
      </trkpt>
      <trkpt lat="45.32807" lon="4.70658">
        <ele>416</ele>
        <time>2021-02-26T05:57:25Z</time>
      </trkpt>
      <trkpt lat="45.32802" lon="4.70643">
        <ele>418</ele>
        <time>2021-02-26T05:57:40Z</time>
      </trkpt>
      <trkpt lat="45.32782" lon="4.70603">
        <ele>420</ele>
        <time>2021-02-26T05:58:26Z</time>
      </trkpt>
      <trkpt lat="45.32751" lon="4.705">
        <ele>424</ele>
        <time>2021-02-26T06:00:12Z</time>
      </trkpt>
      <trkpt lat="45.32741" lon="4.70466">
        <ele>426</ele>
        <time>2021-02-26T06:00:46Z</time>
      </trkpt>
      <trkpt lat="45.32736" lon="4.70434">
        <ele>429</ele>
        <time>2021-02-26T06:01:17Z</time>
      </trkpt>
      <trkpt lat="45.32735" lon="4.70403">
        <ele>432</ele>
        <time>2021-02-26T06:01:46Z</time>
      </trkpt>
      <trkpt lat="45.32746" lon="4.70326">
        <ele>440</ele>
        <time>2021-02-26T06:03:00Z</time>
      </trkpt>
      <trkpt lat="45.32744" lon="4.70292">
        <ele>442</ele>
        <time>2021-02-26T06:03:32Z</time>
      </trkpt>
      <trkpt lat="45.32726" lon="4.70228">
        <ele>444</ele>
        <time>2021-02-26T06:04:36Z</time>
      </trkpt>
      <trkpt lat="45.32724" lon="4.70153">
        <ele>449</ele>
        <time>2021-02-26T06:05:47Z</time>
      </trkpt>
      <trkpt lat="45.32726" lon="4.70104">
        <ele>451</ele>
        <time>2021-02-26T06:06:33Z</time>
      </trkpt>
      <trkpt lat="45.32739" lon="4.7002">
        <ele>455</ele>
        <time>2021-02-26T06:07:54Z</time>
      </trkpt>
      <trkpt lat="45.32743" lon="4.69989">
        <ele>456</ele>
        <time>2021-02-26T06:08:23Z</time>
      </trkpt>
      <trkpt lat="45.32752" lon="4.69937">
        <ele>461</ele>
        <time>2021-02-26T06:09:13Z</time>
      </trkpt>
      <trkpt lat="45.32763" lon="4.69914">
        <ele>464</ele>
        <time>2021-02-26T06:09:40Z</time>
      </trkpt>
      <trkpt lat="45.32783" lon="4.69902">
        <ele>466</ele>
        <time>2021-02-26T06:10:08Z</time>
      </trkpt>
      <trkpt lat="45.32808" lon="4.69879">
        <ele>469</ele>
        <time>2021-02-26T06:10:48Z</time>
      </trkpt>
      <trkpt lat="45.32811" lon="4.69871">
        <ele>470</ele>
        <time>2021-02-26T06:10:57Z</time>
      </trkpt>
      <trkpt lat="45.32819" lon="4.69868">
        <ele>471</ele>
        <time>2021-02-26T06:11:08Z</time>
      </trkpt>
      <trkpt lat="45.32833" lon="4.69859">
        <ele>472</ele>
        <time>2021-02-26T06:11:28Z</time>
      </trkpt>
      <trkpt lat="45.32845" lon="4.69861">
        <ele>473</ele>
        <time>2021-02-26T06:11:44Z</time>
      </trkpt>
      <trkpt lat="45.32861" lon="4.69875">
        <ele>473</ele>
        <time>2021-02-26T06:12:09Z</time>
      </trkpt>
      <trkpt lat="45.32914" lon="4.69934">
        <ele>475</ele>
        <time>2021-02-26T06:13:39Z</time>
      </trkpt>
      <trkpt lat="45.32932" lon="4.69951">
        <ele>476</ele>
        <time>2021-02-26T06:14:08Z</time>
      </trkpt>
      <trkpt lat="45.32941" lon="4.69956">
        <ele>477</ele>
        <time>2021-02-26T06:14:21Z</time>
      </trkpt>
      <trkpt lat="45.32947" lon="4.69965">
        <ele>478</ele>
        <time>2021-02-26T06:14:33Z</time>
      </trkpt>
      <trkpt lat="45.32951" lon="4.69995">
        <ele>478</ele>
        <time>2021-02-26T06:15:01Z</time>
      </trkpt>
      <trkpt lat="45.32953" lon="4.70005">
        <ele>479</ele>
        <time>2021-02-26T06:15:11Z</time>
      </trkpt>
      <trkpt lat="45.32976" lon="4.70004">
        <ele>482</ele>
        <time>2021-02-26T06:15:42Z</time>
      </trkpt>
      <trkpt lat="45.32988" lon="4.70008">
        <ele>483</ele>
        <time>2021-02-26T06:15:58Z</time>
      </trkpt>
      <trkpt lat="45.33051" lon="4.70046">
        <ele>493</ele>
        <time>2021-02-26T06:17:30Z</time>
      </trkpt>
      <trkpt lat="45.3307" lon="4.70063">
        <ele>494</ele>
        <time>2021-02-26T06:17:59Z</time>
      </trkpt>
      <trkpt lat="45.33111" lon="4.70111">
        <ele>497</ele>
        <time>2021-02-26T06:19:10Z</time>
      </trkpt>
      <trkpt lat="45.33135" lon="4.70131">
        <ele>496</ele>
        <time>2021-02-26T06:19:47Z</time>
      </trkpt>
      <trkpt lat="45.3316" lon="4.70144">
        <ele>494</ele>
        <time>2021-02-26T06:20:23Z</time>
      </trkpt>
      <trkpt lat="45.33185" lon="4.70153">
        <ele>494</ele>
        <time>2021-02-26T06:20:57Z</time>
      </trkpt>
      <trkpt lat="45.33209" lon="4.70159">
        <ele>493</ele>
        <time>2021-02-26T06:21:30Z</time>
      </trkpt>
      <trkpt lat="45.33246" lon="4.70164">
        <ele>492</ele>
        <time>2021-02-26T06:22:19Z</time>
      </trkpt>
      <trkpt lat="45.33285" lon="4.70165">
        <ele>494</ele>
        <time>2021-02-26T06:23:12Z</time>
      </trkpt>
      <trkpt lat="45.33301" lon="4.70167">
        <ele>494</ele>
        <time>2021-02-26T06:23:33Z</time>
      </trkpt>
      <trkpt lat="45.33343" lon="4.70182">
        <ele>496</ele>
        <time>2021-02-26T06:24:31Z</time>
      </trkpt>
      <trkpt lat="45.33351" lon="4.70187">
        <ele>496</ele>
        <time>2021-02-26T06:24:42Z</time>
      </trkpt>
      <trkpt lat="45.33362" lon="4.70195">
        <ele>497</ele>
        <time>2021-02-26T06:24:59Z</time>
      </trkpt>
      <trkpt lat="45.3339" lon="4.70229">
        <ele>495</ele>
        <time>2021-02-26T06:25:48Z</time>
      </trkpt>
      <trkpt lat="45.33401" lon="4.70256">
        <ele>493</ele>
        <time>2021-02-26T06:26:17Z</time>
      </trkpt>
      <trkpt lat="45.33432" lon="4.70311">
        <ele>492</ele>
        <time>2021-02-26T06:27:23Z</time>
      </trkpt>
      <trkpt lat="45.33452" lon="4.70338">
        <ele>491</ele>
        <time>2021-02-26T06:28:00Z</time>
      </trkpt>
      <trkpt lat="45.33493" lon="4.70382">
        <ele>492</ele>
        <time>2021-02-26T06:29:09Z</time>
      </trkpt>
      <trkpt lat="45.33508" lon="4.70392">
        <ele>493</ele>
        <time>2021-02-26T06:29:31Z</time>
      </trkpt>
      <trkpt lat="45.33542" lon="4.70408">
        <ele>493</ele>
        <time>2021-02-26T06:30:19Z</time>
      </trkpt>
      <trkpt lat="45.3358" lon="4.70418">
        <ele>493</ele>
        <time>2021-02-26T06:31:10Z</time>
      </trkpt>
      <trkpt lat="45.33586" lon="4.7038">
        <ele>497</ele>
        <time>2021-02-26T06:31:47Z</time>
      </trkpt>
      <trkpt lat="45.33587" lon="4.70353">
        <ele>500</ele>
        <time>2021-02-26T06:32:12Z</time>
      </trkpt>
      <trkpt lat="45.33589" lon="4.70333">
        <ele>502</ele>
        <time>2021-02-26T06:32:31Z</time>
      </trkpt>
      <trkpt lat="45.33594" lon="4.70315">
        <ele>504</ele>
        <time>2021-02-26T06:32:49Z</time>
      </trkpt>
      <trkpt lat="45.33602" lon="4.70297">
        <ele>505</ele>
        <time>2021-02-26T06:33:09Z</time>
      </trkpt>
      <trkpt lat="45.33607" lon="4.70277">
        <ele>507</ele>
        <time>2021-02-26T06:33:29Z</time>
      </trkpt>
      <trkpt lat="45.33612" lon="4.70234">
        <ele>511</ele>
        <time>2021-02-26T06:34:10Z</time>
      </trkpt>
      <trkpt lat="45.33611" lon="4.70229">
        <ele>512</ele>
        <time>2021-02-26T06:34:15Z</time>
      </trkpt>
      <trkpt lat="45.33607" lon="4.70222">
        <ele>513</ele>
        <time>2021-02-26T06:34:23Z</time>
      </trkpt>
      <trkpt lat="45.33597" lon="4.70212">
        <ele>515</ele>
        <time>2021-02-26T06:34:40Z</time>
      </trkpt>
      <trkpt lat="45.3359" lon="4.70202">
        <ele>517</ele>
        <time>2021-02-26T06:34:53Z</time>
      </trkpt>
      <trkpt lat="45.33563" lon="4.70128">
        <ele>525</ele>
        <time>2021-02-26T06:36:11Z</time>
      </trkpt>
      <trkpt lat="45.33561" lon="4.70118">
        <ele>526</ele>
        <time>2021-02-26T06:36:21Z</time>
      </trkpt>
      <trkpt lat="45.33564" lon="4.70083">
        <ele>528</ele>
        <time>2021-02-26T06:36:54Z</time>
      </trkpt>
      <trkpt lat="45.33579" lon="4.70032">
        <ele>530</ele>
        <time>2021-02-26T06:37:46Z</time>
      </trkpt>
      <trkpt lat="45.33578" lon="4.69978">
        <ele>531</ele>
        <time>2021-02-26T06:38:36Z</time>
      </trkpt>
      <trkpt lat="45.33575" lon="4.69969">
        <ele>531</ele>
        <time>2021-02-26T06:38:46Z</time>
      </trkpt>
      <trkpt lat="45.33572" lon="4.69965">
        <ele>531</ele>
        <time>2021-02-26T06:38:51Z</time>
      </trkpt>
      <trkpt lat="45.33563" lon="4.69965">
        <ele>533</ele>
        <time>2021-02-26T06:39:03Z</time>
      </trkpt>
      <trkpt lat="45.33554" lon="4.69974">
        <ele>535</ele>
        <time>2021-02-26T06:39:18Z</time>
      </trkpt>
      <trkpt lat="45.33547" lon="4.69977">
        <ele>536</ele>
        <time>2021-02-26T06:39:28Z</time>
      </trkpt>
      <trkpt lat="45.33534" lon="4.69975">
        <ele>538</ele>
        <time>2021-02-26T06:39:45Z</time>
      </trkpt>
      <trkpt lat="45.33526" lon="4.69971">
        <ele>539</ele>
        <time>2021-02-26T06:39:57Z</time>
      </trkpt>
      <trkpt lat="45.33504" lon="4.69952">
        <ele>543</ele>
        <time>2021-02-26T06:40:31Z</time>
      </trkpt>
      <trkpt lat="45.33496" lon="4.6995">
        <ele>544</ele>
        <time>2021-02-26T06:40:42Z</time>
      </trkpt>
      <trkpt lat="45.33479" lon="4.69951">
        <ele>545</ele>
        <time>2021-02-26T06:41:04Z</time>
      </trkpt>
      <trkpt lat="45.33465" lon="4.69947">
        <ele>546</ele>
        <time>2021-02-26T06:41:23Z</time>
      </trkpt>
      <trkpt lat="45.33423" lon="4.69926">
        <ele>550</ele>
        <time>2021-02-26T06:42:23Z</time>
      </trkpt>
      <trkpt lat="45.33414" lon="4.69914">
        <ele>552</ele>
        <time>2021-02-26T06:42:39Z</time>
      </trkpt>
      <trkpt lat="45.33408" lon="4.69899">
        <ele>551</ele>
        <time>2021-02-26T06:42:56Z</time>
      </trkpt>
      <trkpt lat="45.33402" lon="4.69888">
        <ele>551</ele>
        <time>2021-02-26T06:43:09Z</time>
      </trkpt>
      <trkpt lat="45.33367" lon="4.69855">
        <ele>552</ele>
        <time>2021-02-26T06:44:05Z</time>
      </trkpt>
      <trkpt lat="45.33346" lon="4.69841">
        <ele>554</ele>
        <time>2021-02-26T06:44:36Z</time>
      </trkpt>
      <trkpt lat="45.33337" lon="4.69832">
        <ele>555</ele>
        <time>2021-02-26T06:44:50Z</time>
      </trkpt>
      <trkpt lat="45.33295" lon="4.69782">
        <ele>555</ele>
        <time>2021-02-26T06:46:03Z</time>
      </trkpt>
      <trkpt lat="45.33265" lon="4.6975">
        <ele>558</ele>
        <time>2021-02-26T06:46:53Z</time>
      </trkpt>
      <trkpt lat="45.33241" lon="4.69729">
        <ele>558</ele>
        <time>2021-02-26T06:47:31Z</time>
      </trkpt>
      <trkpt lat="45.33221" lon="4.69689">
        <ele>559</ele>
        <time>2021-02-26T06:48:17Z</time>
      </trkpt>
      <trkpt lat="45.33211" lon="4.6968">
        <ele>560</ele>
        <time>2021-02-26T06:48:33Z</time>
      </trkpt>
      <trkpt lat="45.33189" lon="4.69669">
        <ele>561</ele>
        <time>2021-02-26T06:49:04Z</time>
      </trkpt>
      <trkpt lat="45.33182" lon="4.69663">
        <ele>562</ele>
        <time>2021-02-26T06:49:15Z</time>
      </trkpt>
      <trkpt lat="45.33174" lon="4.6965">
        <ele>563</ele>
        <time>2021-02-26T06:49:31Z</time>
      </trkpt>
      <trkpt lat="45.33147" lon="4.69583">
        <ele>567</ele>
        <time>2021-02-26T06:50:43Z</time>
      </trkpt>
      <trkpt lat="45.33135" lon="4.69527">
        <ele>569</ele>
        <time>2021-02-26T06:51:38Z</time>
      </trkpt>
      <trkpt lat="45.33125" lon="4.69507">
        <ele>571</ele>
        <time>2021-02-26T06:52:01Z</time>
      </trkpt>
      <trkpt lat="45.33111" lon="4.69486">
        <ele>573</ele>
        <time>2021-02-26T06:52:29Z</time>
      </trkpt>
      <trkpt lat="45.33091" lon="4.69469">
        <ele>576</ele>
        <time>2021-02-26T06:53:00Z</time>
      </trkpt>
      <trkpt lat="45.33069" lon="4.69443">
        <ele>579</ele>
        <time>2021-02-26T06:53:38Z</time>
      </trkpt>
      <trkpt lat="45.3305" lon="4.69411">
        <ele>582</ele>
        <time>2021-02-26T06:54:17Z</time>
      </trkpt>
      <trkpt lat="45.33045" lon="4.69406">
        <ele>582</ele>
        <time>2021-02-26T06:54:25Z</time>
      </trkpt>
      <trkpt lat="45.33018" lon="4.6939">
        <ele>584</ele>
        <time>2021-02-26T06:55:04Z</time>
      </trkpt>
      <trkpt lat="45.32982" lon="4.69376">
        <ele>585</ele>
        <time>2021-02-26T06:55:54Z</time>
      </trkpt>
      <trkpt lat="45.32964" lon="4.69367">
        <ele>586</ele>
        <time>2021-02-26T06:56:20Z</time>
      </trkpt>
      <trkpt lat="45.32938" lon="4.69358">
        <ele>586</ele>
        <time>2021-02-26T06:56:55Z</time>
      </trkpt>
      <trkpt lat="45.32878" lon="4.69328">
        <ele>589</ele>
        <time>2021-02-26T06:58:20Z</time>
      </trkpt>
      <trkpt lat="45.32862" lon="4.69323">
        <ele>590</ele>
        <time>2021-02-26T06:58:42Z</time>
      </trkpt>
      <trkpt lat="45.32852" lon="4.69318">
        <ele>591</ele>
        <time>2021-02-26T06:58:56Z</time>
      </trkpt>
      <trkpt lat="45.32808" lon="4.69286">
        <ele>595</ele>
        <time>2021-02-26T07:00:02Z</time>
      </trkpt>
      <trkpt lat="45.32791" lon="4.69259">
        <ele>599</ele>
        <time>2021-02-26T07:00:36Z</time>
      </trkpt>
      <trkpt lat="45.32768" lon="4.69236">
        <ele>601</ele>
        <time>2021-02-26T07:01:14Z</time>
      </trkpt>
      <trkpt lat="45.32747" lon="4.69209">
        <ele>604</ele>
        <time>2021-02-26T07:01:51Z</time>
      </trkpt>
      <trkpt lat="45.32738" lon="4.69199">
        <ele>604</ele>
        <time>2021-02-26T07:02:07Z</time>
      </trkpt>
      <trkpt lat="45.32724" lon="4.69189">
        <ele>605</ele>
        <time>2021-02-26T07:02:28Z</time>
      </trkpt>
      <trkpt lat="45.32674" lon="4.69163">
        <ele>609</ele>
        <time>2021-02-26T07:03:39Z</time>
      </trkpt>
      <trkpt lat="45.32641" lon="4.69142">
        <ele>609</ele>
        <time>2021-02-26T07:04:27Z</time>
      </trkpt>
      <trkpt lat="45.32615" lon="4.6913">
        <ele>609</ele>
        <time>2021-02-26T07:05:03Z</time>
      </trkpt>
      <trkpt lat="45.32609" lon="4.69124">
        <ele>609</ele>
        <time>2021-02-26T07:05:13Z</time>
      </trkpt>
      <trkpt lat="45.32606" lon="4.69115">
        <ele>609</ele>
        <time>2021-02-26T07:05:22Z</time>
      </trkpt>
      <trkpt lat="45.326" lon="4.69088">
        <ele>611</ele>
        <time>2021-02-26T07:05:49Z</time>
      </trkpt>
      <trkpt lat="45.3259" lon="4.69069">
        <ele>611</ele>
        <time>2021-02-26T07:06:11Z</time>
      </trkpt>
      <trkpt lat="45.32578" lon="4.69056">
        <ele>612</ele>
        <time>2021-02-26T07:06:31Z</time>
      </trkpt>
      <trkpt lat="45.32534" lon="4.69022">
        <ele>619</ele>
        <time>2021-02-26T07:07:38Z</time>
      </trkpt>
      <trkpt lat="45.32524" lon="4.69018">
        <ele>621</ele>
        <time>2021-02-26T07:07:52Z</time>
      </trkpt>
      <trkpt lat="45.32494" lon="4.69027">
        <ele>624</ele>
        <time>2021-02-26T07:08:33Z</time>
      </trkpt>
      <trkpt lat="45.32485" lon="4.69028">
        <ele>624</ele>
        <time>2021-02-26T07:08:45Z</time>
      </trkpt>
      <trkpt lat="45.3247" lon="4.69021">
        <ele>627</ele>
        <time>2021-02-26T07:09:06Z</time>
      </trkpt>
      <trkpt lat="45.32457" lon="4.69008">
        <ele>630</ele>
        <time>2021-02-26T07:09:27Z</time>
      </trkpt>
      <trkpt lat="45.32451" lon="4.69004">
        <ele>632</ele>
        <time>2021-02-26T07:09:36Z</time>
      </trkpt>
      <trkpt lat="45.32443" lon="4.69004">
        <ele>632</ele>
        <time>2021-02-26T07:09:47Z</time>
      </trkpt>
      <trkpt lat="45.32416" lon="4.69013">
        <ele>633</ele>
        <time>2021-02-26T07:10:24Z</time>
      </trkpt>
      <trkpt lat="45.32381" lon="4.69036">
        <ele>629</ele>
        <time>2021-02-26T07:11:15Z</time>
      </trkpt>
      <trkpt lat="45.32363" lon="4.69044">
        <ele>628</ele>
        <time>2021-02-26T07:11:41Z</time>
      </trkpt>
      <trkpt lat="45.32346" lon="4.69048">
        <ele>627</ele>
        <time>2021-02-26T07:12:03Z</time>
      </trkpt>
      <trkpt lat="45.3233" lon="4.69045">
        <ele>629</ele>
        <time>2021-02-26T07:12:25Z</time>
      </trkpt>
      <trkpt lat="45.32295" lon="4.69025">
        <ele>631</ele>
        <time>2021-02-26T07:13:15Z</time>
      </trkpt>
      <trkpt lat="45.32272" lon="4.69006">
        <ele>635</ele>
        <time>2021-02-26T07:13:51Z</time>
      </trkpt>
      <trkpt lat="45.32251" lon="4.68984">
        <ele>639</ele>
        <time>2021-02-26T07:14:26Z</time>
      </trkpt>
      <trkpt lat="45.32213" lon="4.6892">
        <ele>648</ele>
        <time>2021-02-26T07:15:44Z</time>
      </trkpt>
      <trkpt lat="45.32184" lon="4.68881">
        <ele>653</ele>
        <time>2021-02-26T07:16:38Z</time>
      </trkpt>
      <trkpt lat="45.32174" lon="4.68874">
        <ele>654</ele>
        <time>2021-02-26T07:16:52Z</time>
      </trkpt>
      <trkpt lat="45.32163" lon="4.6887">
        <ele>653</ele>
        <time>2021-02-26T07:17:08Z</time>
      </trkpt>
      <trkpt lat="45.32123" lon="4.68864">
        <ele>649</ele>
        <time>2021-02-26T07:18:01Z</time>
      </trkpt>
      <trkpt lat="45.32108" lon="4.68854">
        <ele>650</ele>
        <time>2021-02-26T07:18:23Z</time>
      </trkpt>
      <trkpt lat="45.32098" lon="4.68844">
        <ele>651</ele>
        <time>2021-02-26T07:18:40Z</time>
      </trkpt>
      <trkpt lat="45.32088" lon="4.68827">
        <ele>653</ele>
        <time>2021-02-26T07:19:00Z</time>
      </trkpt>
      <trkpt lat="45.32049" lon="4.68726">
        <ele>660</ele>
        <time>2021-02-26T07:20:49Z</time>
      </trkpt>
      <trkpt lat="45.32028" lon="4.68685">
        <ele>660</ele>
        <time>2021-02-26T07:21:36Z</time>
      </trkpt>
      <trkpt lat="45.32002" lon="4.68637">
        <ele>659</ele>
        <time>2021-02-26T07:22:33Z</time>
      </trkpt>
      <trkpt lat="45.31994" lon="4.68619">
        <ele>660</ele>
        <time>2021-02-26T07:22:53Z</time>
      </trkpt>
      <trkpt lat="45.31978" lon="4.68561">
        <ele>669</ele>
        <time>2021-02-26T07:23:51Z</time>
      </trkpt>
      <trkpt lat="45.3197" lon="4.68546">
        <ele>670</ele>
        <time>2021-02-26T07:24:09Z</time>
      </trkpt>
      <trkpt lat="45.31959" lon="4.68534">
        <ele>670</ele>
        <time>2021-02-26T07:24:28Z</time>
      </trkpt>
      <trkpt lat="45.31947" lon="4.68516">
        <ele>671</ele>
        <time>2021-02-26T07:24:51Z</time>
      </trkpt>
      <trkpt lat="45.31933" lon="4.68491">
        <ele>673</ele>
        <time>2021-02-26T07:25:21Z</time>
      </trkpt>
      <trkpt lat="45.31924" lon="4.68484">
        <ele>673</ele>
        <time>2021-02-26T07:25:35Z</time>
      </trkpt>
      <trkpt lat="45.31911" lon="4.68481">
        <ele>671</ele>
        <time>2021-02-26T07:25:52Z</time>
      </trkpt>
      <trkpt lat="45.31898" lon="4.68483">
        <ele>668</ele>
        <time>2021-02-26T07:26:10Z</time>
      </trkpt>
      <trkpt lat="45.31884" lon="4.6848">
        <ele>667</ele>
        <time>2021-02-26T07:26:28Z</time>
      </trkpt>
      <trkpt lat="45.3186" lon="4.68468">
        <ele>667</ele>
        <time>2021-02-26T07:27:02Z</time>
      </trkpt>
      <trkpt lat="45.31829" lon="4.68446">
        <ele>668</ele>
        <time>2021-02-26T07:27:49Z</time>
      </trkpt>
      <trkpt lat="45.3182" lon="4.68438">
        <ele>669</ele>
        <time>2021-02-26T07:28:03Z</time>
      </trkpt>
      <trkpt lat="45.31805" lon="4.68414">
        <ele>672</ele>
        <time>2021-02-26T07:28:33Z</time>
      </trkpt>
      <trkpt lat="45.31802" lon="4.68404">
        <ele>673</ele>
        <time>2021-02-26T07:28:43Z</time>
      </trkpt>
      <trkpt lat="45.31796" lon="4.6836">
        <ele>681</ele>
        <time>2021-02-26T07:29:25Z</time>
      </trkpt>
      <trkpt lat="45.3179" lon="4.68344">
        <ele>683</ele>
        <time>2021-02-26T07:29:42Z</time>
      </trkpt>
      <trkpt lat="45.31782" lon="4.68332">
        <ele>684</ele>
        <time>2021-02-26T07:29:58Z</time>
      </trkpt>
      <trkpt lat="45.31732" lon="4.68296">
        <ele>687</ele>
        <time>2021-02-26T07:31:13Z</time>
      </trkpt>
      <trkpt lat="45.31696" lon="4.68274">
        <ele>691</ele>
        <time>2021-02-26T07:32:05Z</time>
      </trkpt>
      <trkpt lat="45.31643" lon="4.68255">
        <ele>692</ele>
        <time>2021-02-26T07:33:18Z</time>
      </trkpt>
      <trkpt lat="45.31626" lon="4.68243">
        <ele>692</ele>
        <time>2021-02-26T07:33:43Z</time>
      </trkpt>
      <trkpt lat="45.31552" lon="4.68172">
        <ele>692</ele>
        <time>2021-02-26T07:35:42Z</time>
      </trkpt>
      <trkpt lat="45.31539" lon="4.68157">
        <ele>690</ele>
        <time>2021-02-26T07:36:05Z</time>
      </trkpt>
      <trkpt lat="45.31495" lon="4.68087">
        <ele>684</ele>
        <time>2021-02-26T07:37:33Z</time>
      </trkpt>
      <trkpt lat="45.31468" lon="4.68054">
        <ele>678</ele>
        <time>2021-02-26T07:38:20Z</time>
      </trkpt>
      <trkpt lat="45.31461" lon="4.68041">
        <ele>677</ele>
        <time>2021-02-26T07:38:36Z</time>
      </trkpt>
      <trkpt lat="45.31453" lon="4.68009">
        <ele>679</ele>
        <time>2021-02-26T07:39:07Z</time>
      </trkpt>
      <trkpt lat="45.31446" lon="4.67992">
        <ele>680</ele>
        <time>2021-02-26T07:39:26Z</time>
      </trkpt>
      <trkpt lat="45.31441" lon="4.67984">
        <ele>681</ele>
        <time>2021-02-26T07:39:36Z</time>
      </trkpt>
      <trkpt lat="45.31429" lon="4.67973">
        <ele>680</ele>
        <time>2021-02-26T07:39:55Z</time>
      </trkpt>
      <trkpt lat="45.31419" lon="4.67969">
        <ele>679</ele>
        <time>2021-02-26T07:40:09Z</time>
      </trkpt>
      <trkpt lat="45.31379" lon="4.67963">
        <ele>673</ele>
        <time>2021-02-26T07:41:03Z</time>
      </trkpt>
      <trkpt lat="45.31326" lon="4.67946">
        <ele>670</ele>
        <time>2021-02-26T07:42:15Z</time>
      </trkpt>
      <trkpt lat="45.31316" lon="4.67945">
        <ele>669</ele>
        <time>2021-02-26T07:42:28Z</time>
      </trkpt>
      <trkpt lat="45.31291" lon="4.67949">
        <ele>666</ele>
        <time>2021-02-26T07:43:02Z</time>
      </trkpt>
      <trkpt lat="45.31195" lon="4.67984">
        <ele>653</ele>
        <time>2021-02-26T07:45:14Z</time>
      </trkpt>
      <trkpt lat="45.31126" lon="4.67976">
        <ele>648</ele>
        <time>2021-02-26T07:46:47Z</time>
      </trkpt>
      <trkpt lat="45.31114" lon="4.67978">
        <ele>646</ele>
        <time>2021-02-26T07:47:03Z</time>
      </trkpt>
      <trkpt lat="45.31094" lon="4.67964">
        <ele>644</ele>
        <time>2021-02-26T07:47:32Z</time>
      </trkpt>
      <trkpt lat="45.31079" lon="4.67959">
        <ele>642</ele>
        <time>2021-02-26T07:47:53Z</time>
      </trkpt>
      <trkpt lat="45.31066" lon="4.67958">
        <ele>639</ele>
        <time>2021-02-26T07:48:10Z</time>
      </trkpt>
      <trkpt lat="45.31056" lon="4.67968">
        <ele>637</ele>
        <time>2021-02-26T07:48:27Z</time>
      </trkpt>
      <trkpt lat="45.31026" lon="4.67972">
        <ele>631</ele>
        <time>2021-02-26T07:49:07Z</time>
      </trkpt>
      <trkpt lat="45.31014" lon="4.67985">
        <ele>628</ele>
        <time>2021-02-26T07:49:27Z</time>
      </trkpt>
      <trkpt lat="45.30989" lon="4.6799">
        <ele>624</ele>
        <time>2021-02-26T07:50:01Z</time>
      </trkpt>
      <trkpt lat="45.30979" lon="4.67987">
        <ele>623</ele>
        <time>2021-02-26T07:50:14Z</time>
      </trkpt>
      <trkpt lat="45.3094" lon="4.67953">
        <ele>619</ele>
        <time>2021-02-26T07:51:15Z</time>
      </trkpt>
      <trkpt lat="45.30933" lon="4.67949">
        <ele>618</ele>
        <time>2021-02-26T07:51:26Z</time>
      </trkpt>
      <trkpt lat="45.30857" lon="4.6796">
        <ele>612</ele>
        <time>2021-02-26T07:53:07Z</time>
      </trkpt>
      <trkpt lat="45.30841" lon="4.67959">
        <ele>611</ele>
        <time>2021-02-26T07:53:29Z</time>
      </trkpt>
      <trkpt lat="45.30828" lon="4.6798">
        <ele>611</ele>
        <time>2021-02-26T07:53:55Z</time>
      </trkpt>
      <trkpt lat="45.30816" lon="4.67967">
        <ele>611</ele>
        <time>2021-02-26T07:54:15Z</time>
      </trkpt>
      <trkpt lat="45.30765" lon="4.67872">
        <ele>604</ele>
        <time>2021-02-26T07:56:07Z</time>
      </trkpt>
      <trkpt lat="45.30699" lon="4.67913">
        <ele>612</ele>
        <time>2021-02-26T07:57:44Z</time>
      </trkpt>
      <trkpt lat="45.30686" lon="4.67914">
        <ele>613</ele>
        <time>2021-02-26T07:58:01Z</time>
      </trkpt>
      <trkpt lat="45.30657" lon="4.67904">
        <ele>614</ele>
        <time>2021-02-26T07:58:41Z</time>
      </trkpt>
      <trkpt lat="45.30633" lon="4.67889">
        <ele>614</ele>
        <time>2021-02-26T07:59:16Z</time>
      </trkpt>
      <trkpt lat="45.30603" lon="4.67878">
        <ele>614</ele>
        <time>2021-02-26T07:59:57Z</time>
      </trkpt>
      <trkpt lat="45.30581" lon="4.67908">
        <ele>619</ele>
        <time>2021-02-26T08:00:38Z</time>
      </trkpt>
      <trkpt lat="45.30556" lon="4.67958">
        <ele>624</ele>
        <time>2021-02-26T08:01:35Z</time>
      </trkpt>
      <trkpt lat="45.30524" lon="4.68004">
        <ele>627</ele>
        <time>2021-02-26T08:02:36Z</time>
      </trkpt>
      <trkpt lat="45.30515" lon="4.68036">
        <ele>627</ele>
        <time>2021-02-26T08:03:08Z</time>
      </trkpt>
      <trkpt lat="45.30506" lon="4.68099">
        <ele>625</ele>
        <time>2021-02-26T08:04:09Z</time>
      </trkpt>
      <trkpt lat="45.30494" lon="4.68139">
        <ele>622</ele>
        <time>2021-02-26T08:04:50Z</time>
      </trkpt>
      <trkpt lat="45.30476" lon="4.6817">
        <ele>621</ele>
        <time>2021-02-26T08:05:27Z</time>
      </trkpt>
      <trkpt lat="45.30437" lon="4.68209">
        <ele>617</ele>
        <time>2021-02-26T08:06:31Z</time>
      </trkpt>
      <trkpt lat="45.30428" lon="4.68225">
        <ele>615</ele>
        <time>2021-02-26T08:06:50Z</time>
      </trkpt>
      <trkpt lat="45.30419" lon="4.68235">
        <ele>614</ele>
        <time>2021-02-26T08:07:05Z</time>
      </trkpt>
      <trkpt lat="45.30408" lon="4.6824">
        <ele>614</ele>
        <time>2021-02-26T08:07:21Z</time>
      </trkpt>
      <trkpt lat="45.30398" lon="4.68249">
        <ele>614</ele>
        <time>2021-02-26T08:07:37Z</time>
      </trkpt>
      <trkpt lat="45.30388" lon="4.6827">
        <ele>612</ele>
        <time>2021-02-26T08:08:00Z</time>
      </trkpt>
      <trkpt lat="45.30375" lon="4.68322">
        <ele>604</ele>
        <time>2021-02-26T08:08:52Z</time>
      </trkpt>
      <trkpt lat="45.30369" lon="4.68357">
        <ele>599</ele>
        <time>2021-02-26T08:09:26Z</time>
      </trkpt>
      <trkpt lat="45.30361" lon="4.68376">
        <ele>597</ele>
        <time>2021-02-26T08:09:47Z</time>
      </trkpt>
      <trkpt lat="45.30343" lon="4.68396">
        <ele>594</ele>
        <time>2021-02-26T08:10:17Z</time>
      </trkpt>
      <trkpt lat="45.30266" lon="4.68449">
        <ele>587</ele>
        <time>2021-02-26T08:12:11Z</time>
      </trkpt>
      <trkpt lat="45.30249" lon="4.68456">
        <ele>585</ele>
        <time>2021-02-26T08:12:35Z</time>
      </trkpt>
      <trkpt lat="45.30228" lon="4.68458">
        <ele>585</ele>
        <time>2021-02-26T08:13:03Z</time>
      </trkpt>
      <trkpt lat="45.30199" lon="4.68466">
        <ele>583</ele>
        <time>2021-02-26T08:13:43Z</time>
      </trkpt>
      <trkpt lat="45.30181" lon="4.68474">
        <ele>581</ele>
        <time>2021-02-26T08:14:08Z</time>
      </trkpt>
      <trkpt lat="45.30147" lon="4.68492">
        <ele>576</ele>
        <time>2021-02-26T08:14:56Z</time>
      </trkpt>
      <trkpt lat="45.30116" lon="4.68503">
        <ele>571</ele>
        <time>2021-02-26T08:15:39Z</time>
      </trkpt>
      <trkpt lat="45.30139" lon="4.68517">
        <ele>571</ele>
        <time>2021-02-26T08:16:12Z</time>
      </trkpt>
      <trkpt lat="45.30196" lon="4.68529">
        <ele>572</ele>
        <time>2021-02-26T08:17:29Z</time>
      </trkpt>
      <trkpt lat="45.30245" lon="4.68547">
        <ele>571</ele>
        <time>2021-02-26T08:18:37Z</time>
      </trkpt>
      <trkpt lat="45.3027" lon="4.68552">
        <ele>571</ele>
        <time>2021-02-26T08:19:10Z</time>
      </trkpt>
      <trkpt lat="45.30373" lon="4.68558">
        <ele>574</ele>
        <time>2021-02-26T08:21:28Z</time>
      </trkpt>
      <trkpt lat="45.30389" lon="4.68562">
        <ele>575</ele>
        <time>2021-02-26T08:21:49Z</time>
      </trkpt>
      <trkpt lat="45.30449" lon="4.68608">
        <ele>580</ele>
        <time>2021-02-26T08:23:20Z</time>
      </trkpt>
      <trkpt lat="45.30458" lon="4.68609">
        <ele>581</ele>
        <time>2021-02-26T08:23:33Z</time>
      </trkpt>
      <trkpt lat="45.3051" lon="4.68561">
        <ele>588</ele>
        <time>2021-02-26T08:24:55Z</time>
      </trkpt>
      <trkpt lat="45.30549" lon="4.68564">
        <ele>595</ele>
        <time>2021-02-26T08:25:47Z</time>
      </trkpt>
      <trkpt lat="45.30611" lon="4.68586">
        <ele>603</ele>
        <time>2021-02-26T08:27:13Z</time>
      </trkpt>
      <trkpt lat="45.30675" lon="4.68592">
        <ele>611</ele>
        <time>2021-02-26T08:28:38Z</time>
      </trkpt>
      <trkpt lat="45.30757" lon="4.68604">
        <ele>615</ele>
        <time>2021-02-26T08:30:28Z</time>
      </trkpt>
      <trkpt lat="45.30764" lon="4.68612">
        <ele>615</ele>
        <time>2021-02-26T08:30:40Z</time>
      </trkpt>
      <trkpt lat="45.3078" lon="4.68593">
        <ele>614</ele>
        <time>2021-02-26T08:31:08Z</time>
      </trkpt>
      <trkpt lat="45.30792" lon="4.68601">
        <ele>614</ele>
        <time>2021-02-26T08:31:26Z</time>
      </trkpt>
      <trkpt lat="45.30804" lon="4.68602">
        <ele>613</ele>
        <time>2021-02-26T08:31:42Z</time>
      </trkpt>
      <trkpt lat="45.30807" lon="4.68647">
        <ele>615</ele>
        <time>2021-02-26T08:32:24Z</time>
      </trkpt>
      <trkpt lat="45.30813" lon="4.68681">
        <ele>616</ele>
        <time>2021-02-26T08:32:57Z</time>
      </trkpt>
      <trkpt lat="45.30813" lon="4.68694">
        <ele>617</ele>
        <time>2021-02-26T08:33:09Z</time>
      </trkpt>
      <trkpt lat="45.30779" lon="4.68735">
        <ele>621</ele>
        <time>2021-02-26T08:34:09Z</time>
      </trkpt>
      <trkpt lat="45.30765" lon="4.68764">
        <ele>624</ele>
        <time>2021-02-26T08:34:42Z</time>
      </trkpt>
      <trkpt lat="45.30756" lon="4.68801">
        <ele>626</ele>
        <time>2021-02-26T08:35:19Z</time>
      </trkpt>
      <trkpt lat="45.30761" lon="4.68856">
        <ele>628</ele>
        <time>2021-02-26T08:36:11Z</time>
      </trkpt>
      <trkpt lat="45.3077" lon="4.68898">
        <ele>627</ele>
        <time>2021-02-26T08:36:52Z</time>
      </trkpt>
      <trkpt lat="45.30772" lon="4.68925">
        <ele>627</ele>
        <time>2021-02-26T08:37:17Z</time>
      </trkpt>
      <trkpt lat="45.30767" lon="4.68958">
        <ele>626</ele>
        <time>2021-02-26T08:37:49Z</time>
      </trkpt>
      <trkpt lat="45.30759" lon="4.68989">
        <ele>626</ele>
        <time>2021-02-26T08:38:20Z</time>
      </trkpt>
      <trkpt lat="45.30745" lon="4.69031">
        <ele>625</ele>
        <time>2021-02-26T08:39:04Z</time>
      </trkpt>
      <trkpt lat="45.30738" lon="4.69066">
        <ele>622</ele>
        <time>2021-02-26T08:39:38Z</time>
      </trkpt>
      <trkpt lat="45.30725" lon="4.69188">
        <ele>622</ele>
        <time>2021-02-26T08:41:34Z</time>
      </trkpt>
      <trkpt lat="45.30724" lon="4.6921">
        <ele>624</ele>
        <time>2021-02-26T08:41:54Z</time>
      </trkpt>
      <trkpt lat="45.30725" lon="4.69235">
        <ele>625</ele>
        <time>2021-02-26T08:42:18Z</time>
      </trkpt>
      <trkpt lat="45.30736" lon="4.69268">
        <ele>626</ele>
        <time>2021-02-26T08:42:52Z</time>
      </trkpt>
      <trkpt lat="45.30788" lon="4.69324">
        <ele>621</ele>
        <time>2021-02-26T08:44:19Z</time>
      </trkpt>
      <trkpt lat="45.30806" lon="4.69351">
        <ele>619</ele>
        <time>2021-02-26T08:44:54Z</time>
      </trkpt>
      <trkpt lat="45.30835" lon="4.69381">
        <ele>615</ele>
        <time>2021-02-26T08:45:42Z</time>
      </trkpt>
      <trkpt lat="45.30853" lon="4.69412">
        <ele>613</ele>
        <time>2021-02-26T08:46:20Z</time>
      </trkpt>
      <trkpt lat="45.30868" lon="4.69449">
        <ele>612</ele>
        <time>2021-02-26T08:47:00Z</time>
      </trkpt>
      <trkpt lat="45.30873" lon="4.6949">
        <ele>613</ele>
        <time>2021-02-26T08:47:39Z</time>
      </trkpt>
      <trkpt lat="45.30874" lon="4.69552">
        <ele>617</ele>
        <time>2021-02-26T08:48:37Z</time>
      </trkpt>
      <trkpt lat="45.30886" lon="4.69599">
        <ele>615</ele>
        <time>2021-02-26T08:49:24Z</time>
      </trkpt>
      <trkpt lat="45.30903" lon="4.69662">
        <ele>614</ele>
        <time>2021-02-26T08:50:27Z</time>
      </trkpt>
      <trkpt lat="45.30921" lon="4.69707">
        <ele>610</ele>
        <time>2021-02-26T08:51:16Z</time>
      </trkpt>
      <trkpt lat="45.30944" lon="4.69756">
        <ele>605</ele>
        <time>2021-02-26T08:52:11Z</time>
      </trkpt>
      <trkpt lat="45.30968" lon="4.69821">
        <ele>602</ele>
        <time>2021-02-26T08:53:20Z</time>
      </trkpt>
      <trkpt lat="45.30994" lon="4.69898">
        <ele>598</ele>
        <time>2021-02-26T08:54:40Z</time>
      </trkpt>
      <trkpt lat="45.31023" lon="4.69972">
        <ele>596</ele>
        <time>2021-02-26T08:56:00Z</time>
      </trkpt>
      <trkpt lat="45.31049" lon="4.70033">
        <ele>594</ele>
        <time>2021-02-26T08:57:07Z</time>
      </trkpt>
      <trkpt lat="45.31081" lon="4.70163">
        <ele>592</ele>
        <time>2021-02-26T08:59:16Z</time>
      </trkpt>
      <trkpt lat="45.311" lon="4.70207">
        <ele>589</ele>
        <time>2021-02-26T09:00:04Z</time>
      </trkpt>
      <trkpt lat="45.31104" lon="4.70237">
        <ele>589</ele>
        <time>2021-02-26T09:00:33Z</time>
      </trkpt>
      <trkpt lat="45.31111" lon="4.70259">
        <ele>588</ele>
        <time>2021-02-26T09:00:56Z</time>
      </trkpt>
      <trkpt lat="45.31128" lon="4.70296">
        <ele>586</ele>
        <time>2021-02-26T09:01:37Z</time>
      </trkpt>
      <trkpt lat="45.31149" lon="4.70335">
        <ele>585</ele>
        <time>2021-02-26T09:02:23Z</time>
      </trkpt>
      <trkpt lat="45.31164" lon="4.70376">
        <ele>584</ele>
        <time>2021-02-26T09:03:06Z</time>
      </trkpt>
      <trkpt lat="45.31187" lon="4.70414">
        <ele>583</ele>
        <time>2021-02-26T09:03:54Z</time>
      </trkpt>
      <trkpt lat="45.31175" lon="4.7043">
        <ele>582</ele>
        <time>2021-02-26T09:04:15Z</time>
      </trkpt>
      <trkpt lat="45.311" lon="4.70448">
        <ele>577</ele>
        <time>2021-02-26T09:05:57Z</time>
      </trkpt>
      <trkpt lat="45.31084" lon="4.70459">
        <ele>574</ele>
        <time>2021-02-26T09:06:21Z</time>
      </trkpt>
      <trkpt lat="45.31074" lon="4.70474">
        <ele>572</ele>
        <time>2021-02-26T09:06:40Z</time>
      </trkpt>
      <trkpt lat="45.31092" lon="4.70581">
        <ele>561</ele>
        <time>2021-02-26T09:08:23Z</time>
      </trkpt>
      <trkpt lat="45.31065" lon="4.70626">
        <ele>552</ele>
        <time>2021-02-26T09:09:19Z</time>
      </trkpt>
      <trkpt lat="45.31023" lon="4.70643">
        <ele>543</ele>
        <time>2021-02-26T09:10:17Z</time>
      </trkpt>
      <trkpt lat="45.31016" lon="4.70637">
        <ele>543</ele>
        <time>2021-02-26T09:10:28Z</time>
      </trkpt>
      <trkpt lat="45.30994" lon="4.70634">
        <ele>540</ele>
        <time>2021-02-26T09:10:58Z</time>
      </trkpt>
      <trkpt lat="45.30972" lon="4.70627">
        <ele>539</ele>
        <time>2021-02-26T09:11:28Z</time>
      </trkpt>
      <trkpt lat="45.30956" lon="4.70606">
        <ele>541</ele>
        <time>2021-02-26T09:11:57Z</time>
      </trkpt>
      <trkpt lat="45.30939" lon="4.70578">
        <ele>543</ele>
        <time>2021-02-26T09:12:31Z</time>
      </trkpt>
      <trkpt lat="45.30928" lon="4.70571">
        <ele>543</ele>
        <time>2021-02-26T09:12:47Z</time>
      </trkpt>
      <trkpt lat="45.30911" lon="4.70576">
        <ele>542</ele>
        <time>2021-02-26T09:13:11Z</time>
      </trkpt>
      <trkpt lat="45.30898" lon="4.70594">
        <ele>541</ele>
        <time>2021-02-26T09:13:35Z</time>
      </trkpt>
      <trkpt lat="45.30889" lon="4.70622">
        <ele>539</ele>
        <time>2021-02-26T09:14:04Z</time>
      </trkpt>
      <trkpt lat="45.3087" lon="4.70695">
        <ele>532</ele>
        <time>2021-02-26T09:15:17Z</time>
      </trkpt>
      <trkpt lat="45.30859" lon="4.70706">
        <ele>533</ele>
        <time>2021-02-26T09:15:35Z</time>
      </trkpt>
      <trkpt lat="45.30841" lon="4.70715">
        <ele>534</ele>
        <time>2021-02-26T09:16:00Z</time>
      </trkpt>
      <trkpt lat="45.30835" lon="4.7073">
        <ele>533</ele>
        <time>2021-02-26T09:16:16Z</time>
      </trkpt>
      <trkpt lat="45.30824" lon="4.70773">
        <ele>532</ele>
        <time>2021-02-26T09:16:59Z</time>
      </trkpt>
      <trkpt lat="45.30821" lon="4.70798">
        <ele>530</ele>
        <time>2021-02-26T09:17:23Z</time>
      </trkpt>
      <trkpt lat="45.30824" lon="4.70901">
        <ele>514</ele>
        <time>2021-02-26T09:19:00Z</time>
      </trkpt>
      <trkpt lat="45.30819" lon="4.70928">
        <ele>510</ele>
        <time>2021-02-26T09:19:26Z</time>
      </trkpt>
      <trkpt lat="45.30807" lon="4.70953">
        <ele>508</ele>
        <time>2021-02-26T09:19:55Z</time>
      </trkpt>
      <trkpt lat="45.30797" lon="4.70962">
        <ele>508</ele>
        <time>2021-02-26T09:20:10Z</time>
      </trkpt>
      <trkpt lat="45.3078" lon="4.70964">
        <ele>510</ele>
        <time>2021-02-26T09:20:33Z</time>
      </trkpt>
      <trkpt lat="45.30757" lon="4.70971">
        <ele>512</ele>
        <time>2021-02-26T09:21:04Z</time>
      </trkpt>
      <trkpt lat="45.30733" lon="4.70987">
        <ele>512</ele>
        <time>2021-02-26T09:21:40Z</time>
      </trkpt>
      <trkpt lat="45.30728" lon="4.70998">
        <ele>509</ele>
        <time>2021-02-26T09:21:52Z</time>
      </trkpt>
      <trkpt lat="45.30735" lon="4.71012">
        <ele>505</ele>
        <time>2021-02-26T09:22:08Z</time>
      </trkpt>
      <trkpt lat="45.30756" lon="4.71072">
        <ele>492</ele>
        <time>2021-02-26T09:23:11Z</time>
      </trkpt>
      <trkpt lat="45.30761" lon="4.71125">
        <ele>486</ele>
        <time>2021-02-26T09:24:01Z</time>
      </trkpt>
      <trkpt lat="45.3077" lon="4.71141">
        <ele>484</ele>
        <time>2021-02-26T09:24:21Z</time>
      </trkpt>
      <trkpt lat="45.30799" lon="4.71174">
        <ele>481</ele>
        <time>2021-02-26T09:25:10Z</time>
      </trkpt>
      <trkpt lat="45.30809" lon="4.71197">
        <ele>479</ele>
        <time>2021-02-26T09:25:36Z</time>
      </trkpt>
      <trkpt lat="45.3084" lon="4.71297">
        <ele>476</ele>
        <time>2021-02-26T09:27:18Z</time>
      </trkpt>
      <trkpt lat="45.30843" lon="4.71323">
        <ele>476</ele>
        <time>2021-02-26T09:27:43Z</time>
      </trkpt>
      <trkpt lat="45.30842" lon="4.71365">
        <ele>475</ele>
        <time>2021-02-26T09:28:22Z</time>
      </trkpt>
      <trkpt lat="45.30837" lon="4.7143">
        <ele>474</ele>
        <time>2021-02-26T09:29:24Z</time>
      </trkpt>
      <trkpt lat="45.30839" lon="4.71466">
        <ele>474</ele>
        <time>2021-02-26T09:29:58Z</time>
      </trkpt>
      <trkpt lat="45.30837" lon="4.71492">
        <ele>473</ele>
        <time>2021-02-26T09:30:22Z</time>
      </trkpt>
      <trkpt lat="45.30834" lon="4.71503">
        <ele>472</ele>
        <time>2021-02-26T09:30:33Z</time>
      </trkpt>
      <trkpt lat="45.30837" lon="4.71492">
        <ele>473</ele>
        <time>2021-02-26T09:30:44Z</time>
      </trkpt>
      <trkpt lat="45.30839" lon="4.71466">
        <ele>474</ele>
        <time>2021-02-26T09:31:09Z</time>
      </trkpt>
      <trkpt lat="45.30838" lon="4.71451">
        <ele>474</ele>
        <time>2021-02-26T09:31:23Z</time>
      </trkpt>
      <trkpt lat="45.30855" lon="4.71459">
        <ele>477</ele>
        <time>2021-02-26T09:31:47Z</time>
      </trkpt>
      <trkpt lat="45.30867" lon="4.71468">
        <ele>480</ele>
        <time>2021-02-26T09:32:05Z</time>
      </trkpt>
      <trkpt lat="45.30874" lon="4.71478">
        <ele>482</ele>
        <time>2021-02-26T09:32:18Z</time>
      </trkpt>
      <trkpt lat="45.30876" lon="4.71487">
        <ele>482</ele>
        <time>2021-02-26T09:32:27Z</time>
      </trkpt>
      <trkpt lat="45.30871" lon="4.71522">
        <ele>482</ele>
        <time>2021-02-26T09:33:01Z</time>
      </trkpt>
      <trkpt lat="45.30864" lon="4.71556">
        <ele>482</ele>
        <time>2021-02-26T09:33:34Z</time>
      </trkpt>
      <trkpt lat="45.30855" lon="4.71606">
        <ele>481</ele>
        <time>2021-02-26T09:34:22Z</time>
      </trkpt>
      <trkpt lat="45.30852" lon="4.71645">
        <ele>481</ele>
        <time>2021-02-26T09:34:59Z</time>
      </trkpt>
      <trkpt lat="45.30853" lon="4.71706">
        <ele>478</ele>
        <time>2021-02-26T09:35:56Z</time>
      </trkpt>
      <trkpt lat="45.30879" lon="4.71774">
        <ele>479</ele>
        <time>2021-02-26T09:37:09Z</time>
      </trkpt>
      <trkpt lat="45.30909" lon="4.71877">
        <ele>475</ele>
        <time>2021-02-26T09:38:54Z</time>
      </trkpt>
      <trkpt lat="45.3093" lon="4.71936">
        <ele>475</ele>
        <time>2021-02-26T09:39:56Z</time>
      </trkpt>
      <trkpt lat="45.30947" lon="4.71974">
        <ele>475</ele>
        <time>2021-02-26T09:40:38Z</time>
      </trkpt>
      <trkpt lat="45.30959" lon="4.72002">
        <ele>475</ele>
        <time>2021-02-26T09:41:09Z</time>
      </trkpt>
      <trkpt lat="45.30969" lon="4.72033">
        <ele>475</ele>
        <time>2021-02-26T09:41:41Z</time>
      </trkpt>
      <trkpt lat="45.31005" lon="4.72105">
        <ele>478</ele>
        <time>2021-02-26T09:43:04Z</time>
      </trkpt>
      <trkpt lat="45.31022" lon="4.72144">
        <ele>474</ele>
        <time>2021-02-26T09:43:47Z</time>
      </trkpt>
      <trkpt lat="45.31029" lon="4.72155">
        <ele>473</ele>
        <time>2021-02-26T09:44:01Z</time>
      </trkpt>
      <trkpt lat="45.31049" lon="4.72179">
        <ele>470</ele>
        <time>2021-02-26T09:44:35Z</time>
      </trkpt>
      <trkpt lat="45.31061" lon="4.72188">
        <ele>469</ele>
        <time>2021-02-26T09:44:54Z</time>
      </trkpt>
      <trkpt lat="45.31117" lon="4.72213">
        <ele>463</ele>
        <time>2021-02-26T09:46:12Z</time>
      </trkpt>
      <trkpt lat="45.31145" lon="4.72241">
        <ele>455</ele>
        <time>2021-02-26T09:46:58Z</time>
      </trkpt>
      <trkpt lat="45.31151" lon="4.72243">
        <ele>455</ele>
        <time>2021-02-26T09:47:06Z</time>
      </trkpt>
      <trkpt lat="45.31158" lon="4.72242">
        <ele>455</ele>
        <time>2021-02-26T09:47:15Z</time>
      </trkpt>
      <trkpt lat="45.31173" lon="4.72235">
        <ele>458</ele>
        <time>2021-02-26T09:47:36Z</time>
      </trkpt>
      <trkpt lat="45.31179" lon="4.72234">
        <ele>460</ele>
        <time>2021-02-26T09:47:44Z</time>
      </trkpt>
      <trkpt lat="45.31187" lon="4.72238">
        <ele>460</ele>
        <time>2021-02-26T09:47:56Z</time>
      </trkpt>
      <trkpt lat="45.312" lon="4.72263">
        <ele>457</ele>
        <time>2021-02-26T09:48:25Z</time>
      </trkpt>
      <trkpt lat="45.31236" lon="4.72349">
        <ele>446</ele>
        <time>2021-02-26T09:49:59Z</time>
      </trkpt>
      <trkpt lat="45.31262" lon="4.72391">
        <ele>443</ele>
        <time>2021-02-26T09:50:51Z</time>
      </trkpt>
      <trkpt lat="45.31266" lon="4.72403">
        <ele>441</ele>
        <time>2021-02-26T09:51:04Z</time>
      </trkpt>
      <trkpt lat="45.31269" lon="4.72416">
        <ele>438</ele>
        <time>2021-02-26T09:51:17Z</time>
      </trkpt>
      <trkpt lat="45.31275" lon="4.72429">
        <ele>436</ele>
        <time>2021-02-26T09:51:31Z</time>
      </trkpt>
      <trkpt lat="45.31311" lon="4.72485">
        <ele>425</ele>
        <time>2021-02-26T09:52:42Z</time>
      </trkpt>
      <trkpt lat="45.31318" lon="4.72498">
        <ele>422</ele>
        <time>2021-02-26T09:52:58Z</time>
      </trkpt>
      <trkpt lat="45.31328" lon="4.72529">
        <ele>416</ele>
        <time>2021-02-26T09:53:30Z</time>
      </trkpt>
      <trkpt lat="45.31336" lon="4.72545">
        <ele>413</ele>
        <time>2021-02-26T09:53:48Z</time>
      </trkpt>
      <trkpt lat="45.31342" lon="4.72553">
        <ele>412</ele>
        <time>2021-02-26T09:53:59Z</time>
      </trkpt>
      <trkpt lat="45.31352" lon="4.72559">
        <ele>411</ele>
        <time>2021-02-26T09:54:14Z</time>
      </trkpt>
      <trkpt lat="45.31406" lon="4.72562">
        <ele>409</ele>
        <time>2021-02-26T09:55:26Z</time>
      </trkpt>
      <trkpt lat="45.31427" lon="4.72565">
        <ele>410</ele>
        <time>2021-02-26T09:55:54Z</time>
      </trkpt>
      <trkpt lat="45.31444" lon="4.72568">
        <ele>411</ele>
        <time>2021-02-26T09:56:17Z</time>
      </trkpt>
      <trkpt lat="45.31463" lon="4.72598">
        <ele>410</ele>
        <time>2021-02-26T09:56:55Z</time>
      </trkpt>
      <trkpt lat="45.31495" lon="4.72614">
        <ele>411</ele>
        <time>2021-02-26T09:57:40Z</time>
      </trkpt>
      <trkpt lat="45.31505" lon="4.72624">
        <ele>412</ele>
        <time>2021-02-26T09:57:56Z</time>
      </trkpt>
      <trkpt lat="45.31506" lon="4.72635">
        <ele>411</ele>
        <time>2021-02-26T09:58:07Z</time>
      </trkpt>
      <trkpt lat="45.315" lon="4.72649">
        <ele>409</ele>
        <time>2021-02-26T09:58:22Z</time>
      </trkpt>
      <trkpt lat="45.31523" lon="4.72726">
        <ele>403</ele>
        <time>2021-02-26T09:59:41Z</time>
      </trkpt>
      <trkpt lat="45.31546" lon="4.72761">
        <ele>401</ele>
        <time>2021-02-26T10:00:25Z</time>
      </trkpt>
      <trkpt lat="45.3156" lon="4.72787">
        <ele>400</ele>
        <time>2021-02-26T10:00:56Z</time>
      </trkpt>
      <trkpt lat="45.31587" lon="4.72789">
        <ele>401</ele>
        <time>2021-02-26T10:01:32Z</time>
      </trkpt>
      <trkpt lat="45.31625" lon="4.72796">
        <ele>401</ele>
        <time>2021-02-26T10:02:23Z</time>
      </trkpt>
      <trkpt lat="45.31638" lon="4.72829">
        <ele>400</ele>
        <time>2021-02-26T10:02:59Z</time>
      </trkpt>
      <trkpt lat="45.31652" lon="4.72829">
        <ele>401</ele>
        <time>2021-02-26T10:03:18Z</time>
      </trkpt>
      <trkpt lat="45.31687" lon="4.72846">
        <ele>402</ele>
        <time>2021-02-26T10:04:07Z</time>
      </trkpt>
      <trkpt lat="45.31708" lon="4.7287">
        <ele>402</ele>
        <time>2021-02-26T10:04:43Z</time>
      </trkpt>
      <trkpt lat="45.31717" lon="4.72836">
        <ele>404</ele>
        <time>2021-02-26T10:05:17Z</time>
      </trkpt>
      <trkpt lat="45.31758" lon="4.72862">
        <ele>404</ele>
        <time>2021-02-26T10:06:17Z</time>
      </trkpt>
      <trkpt lat="45.3176" lon="4.72847">
        <ele>405</ele>
        <time>2021-02-26T10:06:31Z</time>
      </trkpt>
      <trkpt lat="45.31759" lon="4.7282">
        <ele>406</ele>
        <time>2021-02-26T10:06:57Z</time>
      </trkpt>
    </trkseg>
  </trk>
</gpx>